Time;durP1;ratioP1;P1;durP2;ratioP2;P2;SDS_P1;SDS_P2;PMS_P1;PMS_P2;Temp;Humidity;BMP_temperature;BMP_pressure;BME280_temperature;BME280_humidity;BME280_pressure;Samples;Min_cycle;Max_cycle;Signal;HPM_P1;HPM_P2
2022/07/14 00:00:38;;;;;;;;;10.33;7.33;;;;;29.08;30.33;101315.28;4988891;28;44966;-66
2022/07/14 00:03:03;;;;;;;;;7.00;6.67;;;;;29.39;30.60;101373.59;4989013;28;45127;-61
2022/07/14 00:05:29;;;;;;;;;28.25;24.50;;;;;29.39;30.83;101376.34;4989304;28;45214;-61
2022/07/14 00:07:54;;;;;;;;;12.67;11.33;;;;;29.39;30.76;101381.84;4988883;28;45603;-65
2022/07/14 00:10:19;;;;;;;;;25.25;21.50;;;;;29.21;31.12;101347.75;4988374;28;45177;-62
2022/07/14 00:12:45;;;;;;;;;8.00;8.00;;;;;29.35;31.29;101369.19;4989397;28;45024;-66
2022/07/14 00:15:10;;;;;;;;;8.00;8.00;;;;;29.33;31.21;101367.44;4988657;28;44946;-63
2022/07/14 00:17:35;;;;;;;;;6.33;6.33;;;;;29.29;31.34;101363.06;4989278;28;45811;-62
2022/07/14 00:20:01;;;;;;;;;7.67;7.00;;;;;29.23;31.51;101348.56;4988865;28;45091;-68
2022/07/14 00:22:27;;;;;;;;;10.33;7.67;;;;;29.27;31.27;101349.34;4988737;28;45018;-61
2022/07/14 00:24:52;;;;;;;;;5.67;5.67;;;;;29.28;31.55;101339.22;4988823;28;45196;-64
2022/07/14 00:27:18;;;;;;;;;8.67;6.33;;;;;29.27;31.79;101335.59;4988663;28;45084;-64
2022/07/14 00:29:43;;;;;;;;;8.67;7.33;;;;;29.29;31.94;101332.78;4986891;28;45031;-62
2022/07/14 00:32:09;;;;;;;;;7.33;5.67;;;;;29.25;31.85;101323.72;4987640;28;45051;-61
2022/07/14 00:34:35;;;;;;;;;6.00;5.00;;;;;29.17;31.17;101309.38;4987488;28;45257;-65
2022/07/14 00:37:00;;;;;;;;;4.00;4.00;;;;;29.22;30.90;101323.88;4987761;28;45184;-66
2022/07/14 00:39:26;;;;;;;;;6.00;4.00;;;;;29.21;31.50;101313.84;4987427;28;45281;-64
2022/07/14 00:41:52;;;;;;;;;5.33;5.00;;;;;29.18;31.29;101312.09;4987721;28;45142;-63
2022/07/14 00:44:18;;;;;;;;;5.33;5.33;;;;;29.03;31.46;101285.19;4989092;28;45024;-63
2022/07/14 00:46:43;;;;;;;;;6.00;6.00;;;;;29.19;31.60;101322.16;4988662;28;45007;-61
2022/07/14 00:49:08;;;;;;;;;7.00;7.00;;;;;29.17;31.89;101315.81;4988563;28;45136;-66
2022/07/14 00:51:34;;;;;;;;;11.00;9.67;;;;;29.19;31.54;101318.50;4987490;28;45520;-68
2022/07/14 00:53:59;;;;;;;;;11.00;10.00;;;;;29.18;31.82;101316.72;4988659;28;45180;-63
2022/07/14 00:56:26;;;;;;;;;11.33;11.33;;;;;29.14;32.03;101315.91;4988454;28;45402;-61
2022/07/14 00:58:51;;;;;;;;;13.00;11.33;;;;;29.14;32.27;101326.91;4988121;28;45183;-67
2022/07/14 01:01:16;;;;;;;;;13.00;10.33;;;;;29.12;32.29;101326.09;4988518;28;45109;-61
2022/07/14 01:03:42;;;;;;;;;11.67;11.00;;;;;29.13;32.30;101341.63;4988785;28;44933;-65
2022/07/14 01:06:07;;;;;;;;;12.33;10.33;;;;;29.13;32.52;101341.63;4987925;28;45563;-61
2022/07/14 01:08:33;;;;;;;;;11.67;9.00;;;;;29.07;32.21;101338.25;4987694;28;45098;-62
2022/07/14 01:10:58;;;;;;;;;8.00;8.00;;;;;29.11;32.00;101335.31;4988638;28;44969;-63
2022/07/14 01:13:23;;;;;;;;;9.67;7.00;;;;;29.03;32.04;101337.47;4987722;28;45131;-62
2022/07/14 01:15:49;;;;;;;;;7.00;7.00;;;;;29.07;32.40;101344.63;4987679;28;45289;-65
2022/07/14 01:18:14;;;;;;;;;5.67;5.67;;;;;29.02;32.45;101341.16;4987451;28;45211;-61
2022/07/14 01:20:41;;;;;;;;;7.00;6.00;;;;;29.04;32.41;101344.78;4988225;28;45048;-68
2022/07/14 01:23:09;;;;;;;;;6.33;6.00;;;;;28.96;32.30;101345.09;4990701;28;45114;-64
2022/07/14 01:25:35;;;;;;;;;5.67;5.67;;;;;28.91;31.95;101352.63;4988253;28;46100;-63
2022/07/14 01:28:00;;;;;;;;;8.00;7.00;;;;;28.83;32.48;101358.44;4988116;28;45359;-63
2022/07/14 01:30:26;;;;;;;;;8.67;8.67;;;;;28.79;32.42;101359.53;4988928;28;45480;-61
2022/07/14 01:32:51;;;;;;;;;10.00;9.00;;;;;28.73;32.65;101368.03;4988968;28;45478;-62
2022/07/14 01:35:17;;;;;;;;;9.00;9.00;;;;;28.71;33.34;101363.53;4974723;28;46124;-61
2022/07/14 01:37:42;;;;;;;;;13.00;10.00;;;;;28.65;33.19;101357.31;4987711;28;52522;-62
2022/07/14 01:40:08;;;;;;;;;9.33;8.33;;;;;28.66;33.18;101361.00;4991159;28;45105;-62
2022/07/14 01:42:34;;;;;;;;;8.00;7.33;;;;;28.34;33.65;101318.22;4988828;28;44966;-61
2022/07/14 01:45:00;;;;;;;;;10.00;10.00;;;;;28.52;33.38;101366.09;4990873;28;45103;-68
2022/07/14 01:47:25;;;;;;;;;8.33;7.33;;;;;28.49;33.37;101359.75;4990815;28;45067;-67
2022/07/14 01:49:50;;;;;;;;;8.67;8.33;;;;;28.34;33.81;101348.44;4990528;28;45151;-61
2022/07/14 01:52:16;;;;;;;;;11.67;10.67;;;;;28.25;33.54;101331.34;4979242;28;45154;-64
2022/07/14 01:54:41;;;;;;;;;9.33;8.00;;;;;28.31;33.94;101346.69;4990930;28;45252;-61
2022/07/14 01:57:07;;;;;;;;;12.33;9.67;;;;;28.18;34.13;101348.13;4990750;28;45021;-65
2022/07/14 01:59:32;;;;;;;;;10.00;8.00;;;;;28.05;33.98;101332.13;4990427;28;44993;-64
2022/07/14 02:01:58;;;;;;;;;10.00;10.00;;;;;28.02;34.08;101337.72;4990677;28;45055;-62
2022/07/14 02:04:23;;;;;;;;;11.00;8.00;;;;;27.95;34.28;101352.66;4989790;28;45910;-65
2022/07/14 02:06:54;;;;;;;;;8.33;6.33;;;;;27.87;34.63;101338.25;4989858;28;50164;-67
2022/07/14 02:09:20;;;;;;;;;6.00;6.00;;;;;27.90;34.41;101341.78;4984152;28;44966;-65
2022/07/14 02:14:32;;;;;;;;;13.33;13.00;;;;;27.81;35.15;101324.75;4986735;28;45493;-61
2022/07/14 02:16:58;;;;;;;;;14.75;12.75;;;;;27.52;35.37;101280.00;4990600;28;45167;-63
2022/07/14 02:19:26;;;;;;;;;21.25;18.00;;;;;27.77;35.48;101324.84;4989839;28;45214;-66
2022/07/14 02:21:53;;;;;;;;;18.75;16.00;;;;;27.78;35.33;101331.22;4990022;28;45052;-62
2022/07/14 02:24:20;;;;;;;;;18.75;18.50;;;;;27.74;35.41;101335.06;4989513;28;45196;-65
2022/07/14 02:26:45;;;;;;;;;21.25;18.50;;;;;27.53;35.45;101290.94;4988695;28;45301;-62
2022/07/14 02:29:11;;;;;;;;;33.25;25.50;;;;;27.74;35.69;101322.22;4988624;28;45557;-60
2022/07/14 02:31:36;;;;;;;;;31.50;26.50;;;;;27.72;35.63;101318.63;4988910;28;44969;-63
2022/07/14 02:34:03;;;;;;;;;27.50;23.50;;;;;27.17;35.55;101230.91;4989730;28;46201;-62
2022/07/14 02:36:29;;;;;;;;;29.00;22.50;;;;;27.59;35.56;101303.56;4989788;28;45159;-62
2022/07/14 02:38:55;;;;;;;;;20.00;20.00;;;;;27.44;36.13;101299.53;4983900;28;45023;-67
2022/07/14 02:41:20;;;;;;;;;26.75;24.75;;;;;27.37;36.28;101304.31;4989154;28;45250;-62
2022/07/14 02:43:46;;;;;;;;;29.50;27.50;;;;;27.44;36.50;101320.56;4989544;28;45201;-61
2022/07/14 02:46:11;;;;;;;;;33.00;24.25;;;;;27.42;36.75;101319.72;4988747;28;45246;-62
2022/07/14 02:48:36;;;;;;;;;31.75;22.50;;;;;27.43;36.81;101322.41;4990568;28;45082;-61
2022/07/14 02:51:08;;;;;;;;;33.75;27.75;;;;;27.42;36.57;101322.47;4987914;28;44963;-66
2022/07/14 02:53:34;;;;;;;;;29.25;23.75;;;;;27.09;37.20;101278.75;4989430;28;46188;-62
2022/07/14 02:56:05;;;;;;;;;35.25;30.25;;;;;27.27;37.24;101322.00;4990040;28;45036;-60
2022/07/14 02:58:31;;;;;;;;;32.25;26.00;;;;;27.18;37.08;101305.88;4988342;28;45508;-62
2022/07/14 03:00:56;;;;;;;;;30.25;29.25;;;;;27.22;37.58;101321.25;4987704;28;45085;-64
2022/07/14 03:03:22;;;;;;;;;39.00;30.75;;;;;26.86;37.23;101258.50;4989168;28;45332;-68
2022/07/14 03:05:49;;;;;;;;;29.50;25.75;;;;;27.17;37.13;101317.78;4988606;28;45150;-62
2022/07/14 03:08:15;;;;;;;;;25.25;23.00;;;;;27.21;37.17;101316.75;4987509;28;45032;-63
2022/07/14 03:10:41;;;;;;;;;28.25;25.75;;;;;26.98;37.60;101281.88;4987432;28;44992;-64
2022/07/14 03:13:07;;;;;;;;;23.25;21.50;;;;;26.98;37.81;101293.72;4987576;28;45825;-62
2022/07/14 03:15:32;;;;;;;;;24.75;21.50;;;;;27.02;37.89;101309.09;4987178;28;44924;-62
2022/07/14 03:17:58;;;;;;;;;14.25;14.00;;;;;27.07;37.87;101317.19;4988921;28;44920;-65
2022/07/14 03:20:23;;;;;;;;;20.75;17.00;;;;;27.06;38.01;101323.66;4989026;28;44965;-66
2022/07/14 03:22:49;;;;;;;;;17.25;16.00;;;;;27.00;38.27;101330.22;4989267;28;45812;-64
2022/07/14 03:25:14;;;;;;;;;22.25;15.25;;;;;26.94;38.40;101322.22;4989526;28;45028;-66
2022/07/14 03:27:41;;;;;;;;;19.50;14.50;;;;;26.80;38.47;101305.31;4989658;28;49221;-68
2022/07/14 03:30:08;;;;;;;;;9.67;7.67;;;;;26.89;38.60;101315.06;4989526;28;45234;-68
2022/07/14 03:32:33;;;;;;;;;13.33;8.67;;;;;26.79;38.80;101317.22;4988482;28;45712;-67
2022/07/14 03:35:00;;;;;;;;;5.33;4.00;;;;;26.62;39.05;101307.66;4988713;28;45120;-66
2022/07/14 03:37:25;;;;;;;;;12.00;10.33;;;;;26.46;39.50;101303.59;4989185;28;45057;-63
2022/07/14 03:39:51;;;;;;;;;10.33;8.33;;;;;26.36;39.57;101299.34;4987897;27;45167;-62
2022/07/14 03:42:16;;;;;;;;;8.67;8.00;;;;;26.49;40.10;101317.19;4989674;28;45025;-63
2022/07/14 03:44:42;;;;;;;;;11.00;9.00;;;;;26.38;39.78;101301.09;4987820;28;45340;-67
2022/07/14 03:47:07;;;;;;;;;17.00;9.00;;;;;26.42;39.78;101311.00;4988751;28;45151;-60
2022/07/14 03:49:33;;;;;;;;;10.00;8.33;;;;;26.43;39.95;101311.91;4990311;28;45190;-63
2022/07/14 03:51:58;;;;;;;;;10.00;9.00;;;;;26.44;39.93;101319.19;4989107;28;45644;-61
2022/07/14 03:54:23;;;;;;;;;10.67;8.67;;;;;26.41;39.85;101316.53;4989882;28;45252;-67
2022/07/14 03:56:49;;;;;;;;;10.33;10.33;;;;;26.42;40.09;101313.75;4989499;28;45245;-66
2022/07/14 03:59:14;;;;;;;;;9.33;9.00;;;;;26.04;40.18;101252.81;4988495;28;44948;-66
2022/07/14 04:01:39;;;;;;;;;8.00;8.00;;;;;26.42;40.15;101321.97;4987844;28;45167;-63
2022/07/14 04:04:05;;;;;;;;;13.00;12.00;;;;;26.41;40.24;101316.53;4987257;28;45366;-62
2022/07/14 04:06:32;;;;;;;;;8.33;8.33;;;;;26.40;40.34;101317.47;4987065;28;45678;-62
2022/07/14 04:08:58;;;;;;;;;11.00;8.33;;;;;26.38;40.25;101324.84;4987926;28;45359;-61
2022/07/14 04:11:24;;;;;;;;;11.67;11.67;;;;;26.39;40.50;101319.31;4986078;28;46603;-61
2022/07/14 04:13:49;;;;;;;;;12.67;9.33;;;;;26.39;40.25;101312.94;4987826;28;45277;-61
2022/07/14 04:16:14;;;;;;;;;8.00;8.00;;;;;26.41;40.33;101311.06;4986839;28;45069;-65
2022/07/14 04:18:40;;;;;;;;;10.67;9.00;;;;;25.94;40.55;101237.56;4986473;28;45040;-64
2022/07/14 04:21:10;;;;;;;;;8.33;8.00;;;;;26.38;40.47;101322.09;4980428;28;45060;-64
2022/07/14 04:23:36;;;;;;;;;12.67;10.33;;;;;26.38;40.47;101320.28;4987574;28;45425;-62
2022/07/14 04:26:03;;;;;;;;;7.67;7.00;;;;;26.40;40.90;101322.94;4985649;28;45020;-68
2022/07/14 04:28:28;;;;;;;;;9.00;7.00;;;;;26.36;40.54;101329.47;4989489;28;45143;-62
2022/07/14 04:30:53;;;;;;;;;10.00;7.00;;;;;26.27;40.62;101309.63;4988503;28;47772;-64
2022/07/14 04:33:22;;;;;;;;;11.67;8.00;;;;;26.19;40.90;101298.00;4986646;28;45156;-61
2022/07/14 04:35:48;;;;;;;;;12.33;7.33;;;;;26.25;40.88;101302.41;4985880;28;45419;-63
2022/07/14 04:38:14;;;;;;;;;11.33;8.00;;;;;26.29;40.79;101305.00;4986078;28;45458;-61
2022/07/14 04:40:49;;;;;;;;;9.00;9.00;;;;;26.27;41.15;101298.69;4984681;28;45686;-62
2022/07/14 04:43:15;;;;;;;;;7.00;7.00;;;;;26.18;41.21;101304.41;4986202;28;45336;-63
2022/07/14 04:45:40;;;;;;;;;6.00;5.67;;;;;26.35;40.89;101327.66;4985987;28;44996;-63
2022/07/14 04:48:06;;;;;;;;;9.33;9.33;;;;;26.30;41.32;101323.25;4986070;28;45139;-64
2022/07/14 04:53:15;;;;;;;;;8.33;8.33;;;;;26.27;41.54;101331.56;4985580;28;45204;-64
2022/07/14 04:55:40;;;;;;;;;6.67;6.67;;;;;26.24;41.55;101341.72;4987112;28;49273;-63
2022/07/14 04:58:05;;;;;;;;;12.00;8.67;;;;;26.22;42.01;101339.00;4992234;28;45066;-68
2022/07/14 05:00:31;;;;;;;;;10.33;9.00;;;;;25.81;41.89;101258.94;4990296;28;45151;-62
2022/07/14 05:02:56;;;;;;;;;13.00;10.00;;;;;26.08;41.91;101320.22;4991454;28;45041;-64
2022/07/14 05:05:22;;;;;;;;;11.67;9.67;;;;;26.21;42.09;101331.72;4991513;28;45201;-62
2022/07/14 05:07:47;;;;;;;;;12.33;11.67;;;;;26.24;41.83;101328.91;4991477;28;44976;-62
2022/07/14 05:10:12;;;;;;;;;9.67;9.67;;;;;26.25;42.19;101333.44;4983459;28;46253;-66
2022/07/14 05:12:38;;;;;;;;;19.75;16.25;;;;;26.16;41.73;101317.28;4990858;28;45438;-65
2022/07/14 05:15:03;;;;;;;;;21.50;14.75;;;;;26.29;41.61;101335.13;4984978;28;45108;-66
2022/07/14 05:17:29;;;;;;;;;18.50;16.25;;;;;26.20;42.03;101310.78;4991487;28;45165;-62
2022/07/14 05:19:54;;;;;;;;;14.67;10.67;;;;;26.23;41.67;101318.91;4989111;28;45377;-69
2022/07/14 05:22:20;;;;;;;;;16.33;11.33;;;;;26.32;41.99;101336.91;4990653;28;45230;-62
2022/07/14 05:24:45;;;;;;;;;12.67;11.00;;;;;26.31;42.05;101337.84;4990671;28;45150;-68
2022/07/14 05:27:11;;;;;;;;;11.00;9.33;;;;;26.29;42.12;101332.41;4991410;28;45402;-66
2022/07/14 05:29:36;;;;;;;;;12.00;9.00;;;;;26.08;42.33;101301.06;4990555;28;45612;-61
2022/07/14 05:32:02;;;;;;;;;9.33;9.33;;;;;26.24;42.07;101330.75;4990493;28;45097;-65
2022/07/14 05:34:29;;;;;;;;;21.75;19.00;;;;;26.26;42.36;101328.84;4990298;28;45430;-62
2022/07/14 05:36:58;;;;;;;;;9.67;8.00;;;;;26.25;42.33;101332.53;4990341;28;45108;-69
2022/07/14 05:39:24;;;;;;;;;9.33;7.67;;;;;26.16;42.38;101330.97;4989738;28;45191;-61
2022/07/14 05:41:49;;;;;;;;;9.33;8.33;;;;;26.22;42.30;101335.38;4990445;28;45243;-65
2022/07/14 05:44:14;;;;;;;;;10.00;8.00;;;;;26.20;42.35;101340.91;4991757;28;45050;-62
2022/07/14 05:46:40;;;;;;;;;13.33;9.00;;;;;26.17;42.73;101342.81;4991263;28;45232;-67
2022/07/14 05:49:05;;;;;;;;;7.67;7.67;;;;;26.14;42.85;101330.13;4991125;28;45056;-62
2022/07/14 05:51:30;;;;;;;;;13.67;11.33;;;;;26.06;42.66;101332.19;4990354;28;45014;-65
2022/07/14 05:53:56;;;;;;;;;9.00;9.00;;;;;26.14;42.66;101341.06;4991016;28;45013;-66
2022/07/14 05:56:21;;;;;;;;;7.00;7.00;;;;;26.17;42.51;101340.06;4991217;28;45046;-63
2022/07/14 05:58:47;;;;;;;;;8.67;8.00;;;;;26.25;42.74;101354.44;4990698;28;45433;-66
2022/07/14 06:01:15;;;;;;;;;9.67;8.67;;;;;26.13;42.53;101317.34;4990848;28;45207;-62
2022/07/14 06:03:40;;;;;;;;;7.00;7.00;;;;;26.19;42.61;101322.66;4989986;28;45067;-62
2022/07/14 06:06:08;;;;;;;;;16.67;15.67;;;;;26.35;42.75;101356.00;4989301;28;45177;-64
2022/07/14 06:08:35;;;;;;;;;8.00;8.00;;;;;26.40;42.44;101353.09;4989967;28;45149;-65
2022/07/14 06:11:00;;;;;;;;;7.00;7.00;;;;;26.45;42.50;101354.75;4989774;28;45189;-62
2022/07/14 06:13:27;;;;;;;;;10.33;9.00;;;;;26.47;42.31;101352.88;4988951;28;45216;-61
2022/07/14 06:15:54;;;;;;;;;10.33;8.00;;;;;26.49;42.80;101350.06;4988806;28;45255;-67
2022/07/14 06:18:19;;;;;;;;;14.33;11.33;;;;;26.44;42.54;101355.69;4984133;28;45868;-65
2022/07/14 06:20:45;;;;;;;;;11.33;9.33;;;;;26.41;42.78;101357.63;4991576;28;45131;-64
2022/07/14 06:23:11;;;;;;;;;7.67;7.67;;;;;26.43;42.98;101355.72;4990018;28;45190;-61
2022/07/14 06:25:38;;;;;;;;;10.00;9.33;;;;;26.47;42.56;101360.19;4989919;28;44921;-62
2022/07/14 06:28:03;;;;;;;;;10.00;9.00;;;;;26.44;42.24;101352.06;4990565;28;45474;-71
2022/07/14 06:30:30;;;;;;;;;10.33;10.00;;;;;26.39;42.52;101335.75;4990683;28;45054;-68
2022/07/14 06:32:55;;;;;;;;;9.00;9.00;;;;;26.38;42.32;101344.03;4989430;28;45083;-68
2022/07/14 06:35:21;;;;;;;;;9.67;9.67;;;;;26.46;42.68;101363.88;4989365;28;45331;-64
2022/07/14 06:37:46;;;;;;;;;10.00;9.00;;;;;26.41;42.65;101365.84;4989455;28;45672;-63
2022/07/14 06:40:12;;;;;;;;;9.00;8.33;;;;;26.17;43.35;101324.56;4988959;28;44969;-62
2022/07/14 06:42:37;;;;;;;;;12.33;12.33;;;;;26.36;43.63;101367.84;4989065;28;45487;-65
2022/07/14 06:45:03;;;;;;;;;11.67;10.00;;;;;25.77;43.82;101272.75;4990383;28;45141;-69
2022/07/14 06:47:31;;;;;;;;;11.00;11.00;;;;;26.21;43.72;101352.75;4989773;28;46078;-67
2022/07/14 06:49:58;;;;;;;;;12.33;10.33;;;;;25.87;43.98;101310.78;4988344;28;45393;-63
2022/07/14 06:52:24;;;;;;;;;14.33;9.67;;;;;26.21;43.75;101363.72;4989252;28;45008;-61
2022/07/14 06:54:50;;;;;;;;;14.00;12.33;;;;;26.05;43.84;101320.34;4990244;28;44976;-63
2022/07/14 06:57:15;;;;;;;;;13.00;10.00;;;;;26.25;43.50;101338.00;4988998;28;45784;-62
2022/07/14 06:59:41;;;;;;;;;14.00;10.67;;;;;26.42;43.20;101364.91;4974479;28;45413;-64
2022/07/14 07:02:06;;;;;;;;;8.33;8.33;;;;;26.34;43.25;101342.34;4973913;28;45552;-62
2022/07/14 07:04:31;;;;;;;;;14.33;9.67;;;;;26.51;43.27;101361.88;4988296;28;45357;-62
2022/07/14 07:06:57;;;;;;;;;8.67;8.67;;;;;26.55;42.50;101363.59;4989121;28;45281;-62
2022/07/14 07:09:22;;;;;;;;;11.33;9.67;;;;;26.46;42.34;101331.91;4988823;28;50518;-72
2022/07/14 07:11:50;;;;;;;;;10.33;10.33;;;;;26.66;42.73;101366.94;4986170;28;44951;-67
2022/07/14 07:14:17;;;;;;;;;10.67;9.00;;;;;26.57;42.76;101341.63;4988201;28;45063;-61
2022/07/14 07:16:47;;;;;;;;;7.00;7.00;;;;;26.64;42.54;101362.44;4981486;28;47940;-60
2022/07/14 07:19:13;;;;;;;;;14.67;11.33;;;;;26.72;42.44;101360.38;4982112;28;44955;-63
2022/07/14 07:21:38;;;;;;;;;12.00;11.67;;;;;26.70;42.73;101337.59;4982945;28;45012;-63
2022/07/14 07:24:04;;;;;;;;;8.33;8.33;;;;;26.74;42.18;101330.16;4982000;28;44987;-66
2022/07/14 07:26:35;;;;;;;;;11.67;10.00;;;;;26.98;41.63;101353.16;4988413;28;45885;-61
2022/07/14 07:29:01;;;;;;;;;11.00;11.00;;;;;27.05;41.39;101364.84;4981386;28;45534;-66
2022/07/14 07:31:26;;;;;;;;;13.00;11.67;;;;;27.19;41.70;101365.25;4986878;28;46073;-62
2022/07/14 07:33:51;;;;;;;;;11.33;11.33;;;;;27.19;41.18;101337.81;4997690;28;45144;-66
2022/07/14 07:36:17;;;;;;;;;10.33;10.33;;;;;27.32;40.69;101336.53;4986879;28;45384;-65
2022/07/14 07:38:43;;;;;;;;;12.00;12.00;;;;;27.60;40.85;101354.75;4989083;28;45211;-67
2022/07/14 07:41:09;;;;;;;;;11.67;10.67;;;;;27.73;40.31;101345.13;4991691;28;45224;-71
2022/07/14 07:43:35;;;;;;;;;12.00;10.00;;;;;27.69;40.06;101326.97;4996325;27;45063;-62
2022/07/14 07:46:02;;;;;;;;;20.75;20.00;;;;;27.71;40.00;101319.59;4986559;28;45201;-62
2022/07/14 07:48:29;;;;;;;;;14.33;12.67;;;;;27.94;39.92;101348.09;4986477;28;45211;-61
2022/07/14 07:50:55;;;;;;;;;10.00;10.00;;;;;27.83;39.82;101344.81;4989719;28;45357;-68
2022/07/14 07:53:20;;;;;;;;;18.25;14.25;;;;;27.64;40.14;101307.03;4986721;28;45071;-62
2022/07/14 07:55:45;;;;;;;;;9.67;9.67;;;;;27.53;40.14;101279.97;4997493;28;52866;-62
2022/07/14 07:58:11;;;;;;;;;27.75;26.75;;;;;27.99;40.04;101351.56;4981419;28;44992;-65
2022/07/14 08:00:36;;;;;;;;;9.67;9.67;;;;;27.87;39.01;101325.41;4986825;28;47065;-61
2022/07/14 08:03:03;;;;;;;;;17.75;17.75;;;;;28.02;39.39;101345.06;4982919;28;45511;-62
2022/07/14 08:05:29;;;;;;;;;8.33;8.33;;;;;27.94;39.72;101329.75;4989615;28;45423;-63
2022/07/14 08:07:58;;;;;;;;;20.67;16.00;;;;;28.07;39.77;101345.78;4979689;28;45305;-62
2022/07/14 08:10:23;;;;;;;;;11.33;10.00;;;;;28.16;39.09;101350.03;4970408;28;45488;-61
2022/07/14 08:12:49;;;;;;;;;15.00;14.33;;;;;28.10;39.30;101324.59;4986954;28;45285;-62
2022/07/14 08:15:15;;;;;;;;;13.67;9.33;;;;;28.11;38.81;101320.00;4988675;28;45151;-63
2022/07/14 08:17:41;;;;;;;;;9.33;9.33;;;;;28.24;38.23;101343.28;4984680;28;45618;-62
2022/07/14 08:20:10;;;;;;;;;7.67;7.33;;;;;28.25;38.52;101330.47;4988559;28;45241;-62
2022/07/14 08:22:37;;;;;;;;;8.33;8.33;;;;;28.43;38.23;101340.75;4988081;28;45122;-62
2022/07/14 08:25:04;;;;;;;;;8.00;8.00;;;;;28.40;37.62;101327.13;4983011;28;45255;-65
2022/07/14 08:27:30;;;;;;;;;8.67;8.67;;;;;28.21;38.36;101304.94;4985825;28;45020;-67
2022/07/14 08:29:56;;;;;;;;;11.67;10.00;;;;;28.42;38.42;101344.44;4988319;28;45136;-62
2022/07/14 08:32:41;;;;;;;;;9.67;8.00;;;;;28.47;38.36;101331.41;4986919;28;45130;-61
2022/07/14 08:35:09;;;;;;;;;10.67;10.67;;;;;28.62;37.78;101337.31;4992536;28;45135;-61
2022/07/14 08:37:35;;;;;;;;;11.33;9.00;;;;;28.72;37.23;101332.34;5017378;28;44995;-63
2022/07/14 08:40:02;;;;;;;;;14.00;12.00;;;;;28.76;37.60;101326.66;4987124;28;45223;-65
2022/07/14 08:42:29;;;;;;;;;8.67;8.67;;;;;28.94;36.83;101341.50;4989091;28;45234;-62
2022/07/14 08:44:55;;;;;;;;;9.00;9.00;;;;;28.94;36.62;101304.84;4986287;28;45681;-63
2022/07/14 08:47:20;;;;;;;;;10.33;9.33;;;;;28.95;36.83;101310.28;4998059;28;46441;-66
2022/07/14 08:49:46;;;;;;;;;11.00;9.00;;;;;29.12;36.30;101328.84;4987909;28;45275;-65
2022/07/14 08:52:11;;;;;;;;;15.00;11.67;;;;;29.09;36.08;101325.31;4989196;28;45246;-62
2022/07/14 08:54:38;;;;;;;;;11.33;11.33;;;;;29.15;36.49;101323.19;4988276;28;45275;-62
2022/07/14 08:57:04;;;;;;;;;10.00;10.00;;;;;29.26;36.21;101333.78;4994731;28;45185;-61
2022/07/14 08:59:29;;;;;;;;;11.33;11.00;;;;;29.22;36.41;101332.16;4992580;28;45032;-65
2022/07/14 09:01:57;;;;;;;;;10.33;8.67;;;;;29.14;35.81;101320.53;4987473;28;45173;-62
2022/07/14 09:04:22;;;;;;;;;11.33;10.67;;;;;29.16;35.99;101316.75;4994824;28;45475;-61
2022/07/14 09:06:53;;;;;;;;;10.33;10.33;;;;;29.03;35.87;101275.09;5011807;28;45303;-64
2022/07/14 09:09:24;;;;;;;;;11.00;10.67;;;;;29.28;35.44;101308.97;4987433;28;44879;-62
2022/07/14 09:12:01;;;;;;;;;21.25;17.50;;;;;29.54;35.98;101330.72;4988098;28;44978;-61
2022/07/14 09:15:44;;;;;;;;;11.33;10.00;;;;;29.64;35.32;101322.09;4987015;28;45346;-65
2022/07/14 09:17:17;;;;;;;;;11.33;11.33;;;;;29.71;35.69;101321.72;4987277;28;45088;-62
2022/07/14 09:20:07;;;;;;;;;11.00;9.50;;;;;29.75;34.90;101325.25;4984732;28;45073;-68
2022/07/14 09:22:33;;;;;;;;;9.00;9.00;;;;;29.82;35.36;101318.53;4979207;28;45882;-64
2022/07/14 09:24:58;;;;;;;;;10.33;10.33;;;;;29.94;34.91;101317.06;4983993;28;45636;-62
2022/07/14 09:27:25;;;;;;;;;10.00;10.00;;;;;29.93;33.84;101310.69;4984493;28;44988;-64
2022/07/14 09:29:57;;;;;;;;;7.33;7.33;;;;;29.92;34.26;101310.75;4984927;28;45246;-65
2022/07/14 09:32:47;;;;;;;;;7.33;7.33;;;;;29.96;34.64;101317.88;4982981;28;45492;-63
2022/07/14 09:35:15;;;;;;;;;11.67;10.00;;;;;29.90;34.08;101296.16;4985140;28;46236;-63
2022/07/14 09:37:42;;;;;;;;;9.00;9.00;;;;;29.98;33.01;101284.75;4980696;28;45318;-62
2022/07/14 09:40:15;;;;;;;;;11.00;9.33;;;;;30.21;32.94;101314.00;4978041;28;45020;-61
2022/07/14 09:42:55;;;;;;;;;5.33;5.33;;;;;30.28;31.84;101310.88;4973398;28;45400;-63
2022/07/14 09:45:24;;;;;;;;;7.33;6.00;;;;;30.18;31.76;101297.59;4979124;28;45312;-65
2022/07/14 09:48:02;;;;;;;;;8.00;7.00;;;;;30.25;31.48;101319.28;4987471;28;45462;-63
2022/07/14 09:50:54;;;;;;;;;5.33;5.33;;;;;30.18;31.99;101298.50;4975727;28;45847;-64
2022/07/14 09:53:19;;;;;;;;;6.00;6.00;;;;;30.36;32.44;101324.31;4987149;28;45230;-68
2022/07/14 09:56:05;;;;;;;;;9.33;9.00;;;;;30.48;31.62;101318.25;4975410;28;46399;-62
2022/07/14 09:58:31;;;;;;;;;8.33;8.33;;;;;30.59;31.68;101314.06;4975913;28;45551;-66
2022/07/14 10:00:59;;;;;;;;;9.33;9.33;;;;;30.71;31.50;101312.59;4954648;28;45466;-66
2022/07/14 10:03:28;;;;;;;;;8.33;7.67;;;;;30.72;30.51;101319.88;4954839;28;45363;-62
2022/07/14 10:05:55;;;;;;;;;19.00;17.75;;;;;30.76;29.96;101327.94;4973061;28;45475;-64
2022/07/14 10:08:33;;;;;;;;;8.00;7.33;;;;;30.80;30.17;101323.16;4975269;28;45550;-62
2022/07/14 10:11:00;;;;;;;;;8.00;6.33;;;;;30.79;29.64;101311.22;4967363;28;45405;-64
2022/07/14 10:13:25;;;;;;;;;5.00;5.00;;;;;30.84;29.18;101324.81;4972743;28;45445;-62
2022/07/14 10:15:52;;;;;;;;;2.67;2.67;;;;;30.42;29.73;101260.63;4968743;28;45407;-63
2022/07/14 10:18:19;;;;;;;;;8.00;6.33;;;;;30.63;29.88;101299.16;4971485;28;45330;-66
2022/07/14 10:20:48;;;;;;;;;5.33;5.33;;;;;30.77;29.57;101317.78;4965983;28;45436;-63
2022/07/14 10:23:13;;;;;;;;;9.33;9.33;;;;;30.71;29.87;101307.06;4979585;28;45430;-68
2022/07/14 10:25:40;;;;;;;;;7.33;5.67;;;;;30.88;29.40;101321.78;4974886;28;46389;-62
2022/07/14 10:28:06;;;;;;;;;6.67;6.00;;;;;30.75;29.10;101283.88;4979722;28;45347;-62
2022/07/14 10:30:43;;;;;;;;;9.33;7.00;;;;;31.02;29.48;101325.78;4972924;28;45262;-62
2022/07/14 10:33:41;;;;;;;;;6.00;5.00;;;;;31.13;29.23;101322.47;4970538;28;45456;-65
2022/07/14 10:36:14;;;;;;;;;5.33;5.33;;;;;31.20;29.44;101322.09;4973513;28;45366;-64
2022/07/14 10:39:06;;;;;;;;;5.33;5.33;;;;;31.29;29.33;101309.66;4971674;28;45365;-68
2022/07/14 10:41:50;;;;;;;;;6.00;4.67;;;;;31.33;28.79;101316.84;4990875;28;45349;-61
2022/07/14 10:44:20;;;;;;;;;5.00;5.00;;;;;31.36;28.63;101318.53;4979852;28;45380;-62
2022/07/14 10:46:49;;;;;;;;;3.00;3.00;;;;;31.25;28.81;101299.78;4984013;28;45708;-68
2022/07/14 10:49:16;;;;;;;;;5.00;3.33;;;;;31.07;28.94;101286.88;4977949;28;45311;-62
2022/07/14 10:51:49;;;;;;;;;4.67;4.67;;;;;31.32;29.42;101315.03;4976704;28;45482;-65
2022/07/14 10:54:35;;;;;;;;;5.00;4.00;;;;;31.02;28.64;101257.69;4994319;28;45140;-63
2022/07/14 10:57:11;;;;;;;;;5.67;5.67;;;;;31.34;28.89;101306.69;4985892;28;45642;-66
2022/07/14 10:59:38;;;;;;;;;5.00;5.00;;;;;31.32;28.70;101305.88;4971299;28;45489;-68
2022/07/14 11:02:12;;;;;;;;;4.33;4.33;;;;;31.23;28.53;101307.22;4970653;28;45528;-67
2022/07/14 11:05:02;;;;;;;;;6.67;6.67;;;;;31.22;28.98;101303.56;4972914;28;45573;-65
2022/07/14 11:07:45;;;;;;;;;5.33;5.33;;;;;31.24;29.08;101300.72;4998753;28;45898;-68
2022/07/14 11:10:19;;;;;;;;;8.67;5.00;;;;;31.30;28.59;101297.66;4968613;28;46503;-69
2022/07/14 11:12:59;;;;;;;;;4.00;4.00;;;;;31.26;27.84;101303.41;4968908;28;46280;-62
2022/07/14 11:15:45;;;;;;;;;5.33;5.33;;;;;31.17;27.65;101300.16;4968329;28;45449;-69
2022/07/14 11:18:24;;;;;;;;;4.67;4.67;;;;;31.16;27.94;101314.03;4974987;28;46431;-65
2022/07/14 11:21:06;;;;;;;;;6.00;4.00;;;;;31.11;27.94;101313.38;4975226;28;45126;-62
2022/07/14 11:23:33;;;;;;;;;5.00;5.00;;;;;31.12;27.61;101310.53;4984079;28;44866;-65